sensor_id;sensor_type;location;lat;lon;timestamp;pressure;altitude;pressure_sealevel;temperature;humidity
58879;BME280;44660;42.664;23.266;2023-02-14T00:01:23;95920.28;;;1.94;57.65
58879;BME280;44660;42.664;23.266;2023-02-14T00:03:48;95909.63;;;1.95;57.70
58879;BME280;44660;42.664;23.266;2023-02-14T00:06:14;95941.88;;;2.14;57.48
58879;BME280;44660;42.664;23.266;2023-02-14T00:08:41;95932.97;;;2.07;57.59
58879;BME280;44660;42.664;23.266;2023-02-14T00:11:09;95952.28;;;2.24;57.31
58879;BME280;44660;42.664;23.266;2023-02-14T00:13:35;95942.84;;;2.13;57.23
58879;BME280;44660;42.664;23.266;2023-02-14T00:16:00;95942.28;;;2.27;57.14
58879;BME280;44660;42.664;23.266;2023-02-14T00:18:26;95937.75;;;2.11;57.50
58879;BME280;44660;42.664;23.266;2023-02-14T00:21:12;95962.16;;;2.30;57.55
58879;BME280;44660;42.664;23.266;2023-02-14T00:23:37;95925.22;;;1.97;58.12
58879;BME280;44660;42.664;23.266;2023-02-14T00:26:02;95913.50;;;1.83;58.05
58879;BME280;44660;42.664;23.266;2023-02-14T00:28:28;95969.16;;;2.21;58.19
58879;BME280;44660;42.664;23.266;2023-02-14T00:30:56;95958.66;;;2.21;57.95
58879;BME280;44660;42.664;23.266;2023-02-14T00:33:21;95960.34;;;2.31;57.98
58879;BME280;44660;42.664;23.266;2023-02-14T00:35:47;95907.13;;;1.86;58.31
58879;BME280;44660;42.664;23.266;2023-02-14T00:38:12;95956.13;;;2.38;58.06
58879;BME280;44660;42.664;23.266;2023-02-14T00:40:38;95961.81;;;2.33;58.36
58879;BME280;44660;42.664;23.266;2023-02-14T00:43:03;95934.97;;;2.13;58.13
58879;BME280;44660;42.664;23.266;2023-02-14T00:45:29;95959.72;;;2.37;57.97
58879;BME280;44660;42.664;23.266;2023-02-14T00:47:54;95958.41;;;2.41;58.08
58879;BME280;44660;42.664;23.266;2023-02-14T00:50:20;95927.31;;;2.20;57.98
58879;BME280;44660;42.664;23.266;2023-02-14T00:52:45;95934.06;;;2.22;57.97
58879;BME280;44660;42.664;23.266;2023-02-14T00:55:11;95946.25;;;2.40;57.97
58879;BME280;44660;42.664;23.266;2023-02-14T00:57:36;95940.38;;;2.46;57.87
58879;BME280;44660;42.664;23.266;2023-02-14T01:00:03;95939.59;;;2.54;57.38
58879;BME280;44660;42.664;23.266;2023-02-14T01:02:28;95944.56;;;2.65;57.09
58879;BME280;44660;42.664;23.266;2023-02-14T01:04:54;95915.72;;;2.31;57.28
58879;BME280;44660;42.664;23.266;2023-02-14T01:07:19;95937.09;;;2.44;57.59
58879;BME280;44660;42.664;23.266;2023-02-14T01:09:46;95911.75;;;2.26;57.57
58879;BME280;44660;42.664;23.266;2023-02-14T01:12:12;95902.75;;;2.29;57.24
58879;BME280;44660;42.664;23.266;2023-02-14T01:14:38;95932.31;;;2.39;57.73
58879;BME280;44660;42.664;23.266;2023-02-14T01:17:03;95897.59;;;2.19;57.70
58879;BME280;44660;42.664;23.266;2023-02-14T01:19:29;95921.81;;;2.39;57.39
58879;BME280;44660;42.664;23.266;2023-02-14T01:21:54;95925.94;;;2.42;57.52
58879;BME280;44660;42.664;23.266;2023-02-14T01:24:20;95928.75;;;2.49;57.44
58879;BME280;44660;42.664;23.266;2023-02-14T01:26:45;95862.16;;;2.15;57.27
58879;BME280;44660;42.664;23.266;2023-02-14T01:29:11;95912.19;;;2.56;57.32
58879;BME280;44660;42.664;23.266;2023-02-14T01:31:36;95868.16;;;2.34;56.90
58879;BME280;44660;42.664;23.266;2023-02-14T01:34:03;95919.75;;;2.59;56.73
58879;BME280;44660;42.664;23.266;2023-02-14T01:36:31;95914.47;;;2.51;57.29
58879;BME280;44660;42.664;23.266;2023-02-14T01:39:01;95918.44;;;2.55;57.30
58879;BME280;44660;42.664;23.266;2023-02-14T01:41:30;95897.91;;;2.59;56.97
58879;BME280;44660;42.664;23.266;2023-02-14T01:44:05;95886.38;;;2.35;57.26
58879;BME280;44660;42.664;23.266;2023-02-14T01:46:35;95866.47;;;2.24;57.26
58879;BME280;44660;42.664;23.266;2023-02-14T01:49:05;95874.34;;;2.24;57.28
58879;BME280;44660;42.664;23.266;2023-02-14T01:51:37;95883.91;;;2.34;57.62
58879;BME280;44660;42.664;23.266;2023-02-14T01:54:05;95804.66;;;1.87;57.39
58879;BME280;44660;42.664;23.266;2023-02-14T01:56:40;95865.25;;;2.53;56.93
58879;BME280;44660;42.664;23.266;2023-02-14T01:59:11;95868.69;;;2.54;56.84
58879;BME280;44660;42.664;23.266;2023-02-14T02:01:40;95876.84;;;2.42;57.27
58879;BME280;44660;42.664;23.266;2023-02-14T02:04:09;95872.78;;;2.48;57.03
58879;BME280;44660;42.664;23.266;2023-02-14T02:06:44;95884.66;;;2.60;56.57
58879;BME280;44660;42.664;23.266;2023-02-14T02:11:51;95831.53;;;2.32;56.62
58879;BME280;44660;42.664;23.266;2023-02-14T02:14:19;95883.44;;;2.47;56.99
58879;BME280;44660;42.664;23.266;2023-02-14T02:22:23;95884.22;;;2.31;57.57
58879;BME280;44660;42.664;23.266;2023-02-14T02:30:59;95868.84;;;2.44;57.13
58879;BME280;44660;42.664;23.266;2023-02-14T02:39:47;95840.88;;;2.26;57.56
58879;BME280;44660;42.664;23.266;2023-02-14T02:50:56;95842.03;;;2.24;57.52
58879;BME280;44660;42.664;23.266;2023-02-14T02:53:55;95823.44;;;2.09;57.50
58879;BME280;44660;42.664;23.266;2023-02-14T02:56:27;95838.22;;;2.18;57.74
58879;BME280;44660;42.664;23.266;2023-02-14T02:59:32;95813.19;;;1.89;57.75
58879;BME280;44660;42.664;23.266;2023-02-14T03:02:06;95843.81;;;2.15;57.86
58879;BME280;44660;42.664;23.266;2023-02-14T03:04:35;95802.19;;;1.86;57.97
58879;BME280;44660;42.664;23.266;2023-02-14T03:07:38;95842.81;;;2.16;57.79
58879;BME280;44660;42.664;23.266;2023-02-14T03:10:20;95843.81;;;2.15;57.96
58879;BME280;44660;42.664;23.266;2023-02-14T03:15:39;95847.09;;;2.17;57.64
58879;BME280;44660;42.664;23.266;2023-02-14T03:23:44;95830.34;;;2.18;57.63
58879;BME280;44660;42.664;23.266;2023-02-14T03:26:25;95820.53;;;2.20;57.42
58879;BME280;44660;42.664;23.266;2023-02-14T03:31:40;95808.06;;;2.22;57.31
58879;BME280;44660;42.664;23.266;2023-02-14T03:34:37;95809.97;;;2.04;57.97
58879;BME280;44660;42.664;23.266;2023-02-14T03:37:26;95814.88;;;2.07;57.68
58879;BME280;44660;42.664;23.266;2023-02-14T03:40:01;95799.41;;;1.87;57.68
58879;BME280;44660;42.664;23.266;2023-02-14T03:42:42;95799.41;;;1.87;57.70
58879;BME280;44660;42.664;23.266;2023-02-14T03:45:14;95810.94;;;2.03;57.61
58879;BME280;44660;42.664;23.266;2023-02-14T03:47:42;95810.78;;;2.04;57.53
58879;BME280;44660;42.664;23.266;2023-02-14T03:50:13;95821.41;;;1.94;57.82
58879;BME280;44660;42.664;23.266;2023-02-14T03:52:41;95817.44;;;1.90;57.94
58879;BME280;44660;42.664;23.266;2023-02-14T03:55:08;95795.94;;;1.78;58.09
58879;BME280;44660;42.664;23.266;2023-02-14T03:57:44;95805.34;;;1.98;58.02
58879;BME280;44660;42.664;23.266;2023-02-14T04:00:12;95739.63;;;1.56;58.05
58879;BME280;44660;42.664;23.266;2023-02-14T04:02:42;95797.41;;;1.81;58.26
58879;BME280;44660;42.664;23.266;2023-02-14T04:05:17;95779.88;;;1.82;58.12
58879;BME280;44660;42.664;23.266;2023-02-14T04:07:46;95787.44;;;1.93;57.88
58879;BME280;44660;42.664;23.266;2023-02-14T04:10:12;95759.31;;;1.69;58.09
58879;BME280;44660;42.664;23.266;2023-02-14T04:12:38;95763.44;;;1.71;57.91
58879;BME280;44660;42.664;23.266;2023-02-14T04:15:04;95771.84;;;1.83;57.78
58879;BME280;44660;42.664;23.266;2023-02-14T04:17:29;95780.06;;;1.88;57.77
58879;BME280;44660;42.664;23.266;2023-02-14T04:20:14;95790.91;;;1.93;57.85
58879;BME280;44660;42.664;23.266;2023-02-14T04:22:39;95780.00;;;1.72;58.09
58879;BME280;44660;42.664;23.266;2023-02-14T04:25:05;95788.91;;;1.87;57.99
58879;BME280;44660;42.664;23.266;2023-02-14T04:27:30;95747.50;;;1.65;57.80
58879;BME280;44660;42.664;23.266;2023-02-14T04:29:56;95762.63;;;1.79;57.51
58879;BME280;44660;42.664;23.266;2023-02-14T04:32:21;95799.81;;;2.01;57.65
58879;BME280;44660;42.664;23.266;2023-02-14T04:34:47;95738.97;;;1.62;57.60
58879;BME280;44660;42.664;23.266;2023-02-14T04:37:14;95796.44;;;1.82;57.79
58879;BME280;44660;42.664;23.266;2023-02-14T04:39:40;95792.03;;;1.91;57.38
58879;BME280;44660;42.664;23.266;2023-02-14T04:42:07;95720.34;;;1.39;57.49
58879;BME280;44660;42.664;23.266;2023-02-14T04:44:33;95725.50;;;1.49;57.66
58879;BME280;44660;42.664;23.266;2023-02-14T04:46:58;95784.81;;;1.85;57.80
58879;BME280;44660;42.664;23.266;2023-02-14T04:49:24;95765.59;;;1.76;57.58
58879;BME280;44660;42.664;23.266;2023-02-14T04:51:49;95768.31;;;2.01;57.37
58879;BME280;44660;42.664;23.266;2023-02-14T04:54:15;95762.06;;;1.93;57.41
58879;BME280;44660;42.664;23.266;2023-02-14T04:56:40;95729.00;;;1.66;57.63
58879;BME280;44660;42.664;23.266;2023-02-14T04:59:06;95724.53;;;1.50;57.53
58879;BME280;44660;42.664;23.266;2023-02-14T05:01:32;95755.97;;;1.93;57.08
58879;BME280;44660;42.664;23.266;2023-02-14T05:03:57;95751.81;;;1.74;57.74
58879;BME280;44660;42.664;23.266;2023-02-14T05:06:23;95769.22;;;1.83;57.75
58879;BME280;44660;42.664;23.266;2023-02-14T05:08:48;95759.53;;;1.75;57.41
58879;BME280;44660;42.664;23.266;2023-02-14T05:11:14;95658.34;;;1.22;57.23
58879;BME280;44660;42.664;23.266;2023-02-14T05:13:40;95773.00;;;1.89;57.01
58879;BME280;44660;42.664;23.266;2023-02-14T05:16:05;95649.34;;;1.16;57.08
58879;BME280;44660;42.664;23.266;2023-02-14T05:18:31;95762.56;;;1.97;57.04
58879;BME280;44660;42.664;23.266;2023-02-14T05:20:56;95757.78;;;1.92;56.95
58879;BME280;44660;42.664;23.266;2023-02-14T05:23:22;95762.06;;;1.93;56.78
58879;BME280;44660;42.664;23.266;2023-02-14T05:25:48;95772.22;;;1.96;56.96
58879;BME280;44660;42.664;23.266;2023-02-14T05:28:14;95770.25;;;1.99;57.06
58879;BME280;44660;42.664;23.266;2023-02-14T05:30:40;95765.31;;;1.95;57.29
58879;BME280;44660;42.664;23.266;2023-02-14T05:33:06;95765.97;;;1.89;57.21
58879;BME280;44660;42.664;23.266;2023-02-14T05:35:32;95753.34;;;1.85;57.15
58879;BME280;44660;42.664;23.266;2023-02-14T05:37:57;95756.13;;;1.91;57.11
58879;BME280;44660;42.664;23.266;2023-02-14T05:40:23;95749.72;;;1.86;57.11
58879;BME280;44660;42.664;23.266;2023-02-14T05:42:50;95721.81;;;1.68;57.34
58879;BME280;44660;42.664;23.266;2023-02-14T05:45:16;95763.72;;;2.03;57.24
58879;BME280;44660;42.664;23.266;2023-02-14T05:47:41;95734.00;;;1.86;57.06
58879;BME280;44660;42.664;23.266;2023-02-14T05:50:07;95737.47;;;1.94;57.16
58879;BME280;44660;42.664;23.266;2023-02-14T05:52:41;95725.28;;;1.85;57.26
58879;BME280;44660;42.664;23.266;2023-02-14T05:55:07;95754.06;;;2.11;56.93
58879;BME280;44660;42.664;23.266;2023-02-14T05:57:33;95743.06;;;2.08;56.62
58879;BME280;44660;42.664;23.266;2023-02-14T05:59:59;95745.38;;;2.19;56.58
58879;BME280;44660;42.664;23.266;2023-02-14T06:02:25;95673.28;;;1.64;56.75
58879;BME280;44660;42.664;23.266;2023-02-14T06:04:50;95659.31;;;1.55;56.66
58879;BME280;44660;42.664;23.266;2023-02-14T06:07:16;95757.38;;;2.22;56.71
58879;BME280;44660;42.664;23.266;2023-02-14T06:09:44;95730.56;;;2.02;56.67
58879;BME280;44660;42.664;23.266;2023-02-14T06:12:09;95702.69;;;1.92;56.43
58879;BME280;44660;42.664;23.266;2023-02-14T06:14:35;95746.03;;;2.05;56.93
58879;BME280;44660;42.664;23.266;2023-02-14T06:17:00;95767.06;;;2.21;56.56
58879;BME280;44660;42.664;23.266;2023-02-14T06:19:26;95749.66;;;2.20;56.73
58879;BME280;44660;42.664;23.266;2023-02-14T06:21:51;95755.91;;;2.27;56.45
58879;BME280;44660;42.664;23.266;2023-02-14T06:24:16;95699.94;;;2.10;56.41
58879;BME280;44660;42.664;23.266;2023-02-14T06:26:42;95743.78;;;2.51;55.90
58879;BME280;44660;42.664;23.266;2023-02-14T06:29:07;95742.97;;;2.51;55.66
58879;BME280;44660;42.664;23.266;2023-02-14T06:31:33;95757.75;;;2.68;55.38
58879;BME280;44660;42.664;23.266;2023-02-14T06:33:58;95741.03;;;2.69;55.09
58879;BME280;44660;42.664;23.266;2023-02-14T06:36:24;95740.84;;;2.63;54.75
58879;BME280;44660;42.664;23.266;2023-02-14T06:38:50;95749.72;;;2.70;55.06
58879;BME280;44660;42.664;23.266;2023-02-14T06:41:16;95764.81;;;2.59;55.79
58879;BME280;44660;42.664;23.266;2023-02-14T06:43:45;95769.25;;;2.75;55.70
58879;BME280;44660;42.664;23.266;2023-02-14T06:46:13;95771.22;;;2.73;55.98
58879;BME280;44660;42.664;23.266;2023-02-14T06:48:39;95757.75;;;2.76;55.40
58879;BME280;44660;42.664;23.266;2023-02-14T06:51:04;95752.97;;;2.97;55.07
58879;BME280;44660;42.664;23.266;2023-02-14T06:53:30;95707.38;;;2.65;55.23
58879;BME280;44660;42.664;23.266;2023-02-14T06:55:55;95727.72;;;2.63;55.73
58879;BME280;44660;42.664;23.266;2023-02-14T06:58:21;95760.06;;;2.96;55.69
58879;BME280;44660;42.664;23.266;2023-02-14T07:00:47;95725.22;;;2.94;55.18
58879;BME280;44660;42.664;23.266;2023-02-14T07:03:13;95711.63;;;2.74;55.41
58879;BME280;44660;42.664;23.266;2023-02-14T07:05:38;95675.03;;;2.48;56.01
58879;BME280;44660;42.664;23.266;2023-02-14T07:08:04;95747.06;;;2.94;55.88
58879;BME280;44660;42.664;23.266;2023-02-14T07:10:31;95737.88;;;2.90;56.07
58879;BME280;44660;42.664;23.266;2023-02-14T07:12:58;95703.41;;;2.77;56.28
58879;BME280;44660;42.664;23.266;2023-02-14T07:15:24;95738.38;;;3.02;56.21
58879;BME280;44660;42.664;23.266;2023-02-14T07:17:50;95692.25;;;2.75;56.29
58879;BME280;44660;42.664;23.266;2023-02-14T07:20:15;95739.00;;;3.04;56.23
58879;BME280;44660;42.664;23.266;2023-02-14T07:22:42;95752.69;;;3.00;56.66
58879;BME280;44660;42.664;23.266;2023-02-14T07:25:08;95677.81;;;2.46;56.50
58879;BME280;44660;42.664;23.266;2023-02-14T07:27:34;95673.72;;;2.43;56.90
58879;BME280;44660;42.664;23.266;2023-02-14T07:29:59;95731.97;;;2.97;56.53
58879;BME280;44660;42.664;23.266;2023-02-14T07:32:25;95695.88;;;2.82;56.71
58879;BME280;44660;42.664;23.266;2023-02-14T07:34:50;95729.81;;;3.08;56.45
58879;BME280;44660;42.664;23.266;2023-02-14T07:37:17;95753.78;;;3.22;56.42
58879;BME280;44660;42.664;23.266;2023-02-14T07:39:44;95717.34;;;2.94;56.90
58879;BME280;44660;42.664;23.266;2023-02-14T07:42:09;95753.94;;;3.20;57.06
58879;BME280;44660;42.664;23.266;2023-02-14T07:44:36;95754.91;;;3.36;56.88
58879;BME280;44660;42.664;23.266;2023-02-14T07:47:08;95672.69;;;3.02;56.42
58879;BME280;44660;42.664;23.266;2023-02-14T07:49:35;95756.19;;;3.48;56.39
58879;BME280;44660;42.664;23.266;2023-02-14T07:52:01;95735.53;;;3.29;56.58
58879;BME280;44660;42.664;23.266;2023-02-14T07:54:26;95745.50;;;3.41;56.57
58879;BME280;44660;42.664;23.266;2023-02-14T07:56:52;95765.03;;;3.55;56.22
58879;BME280;44660;42.664;23.266;2023-02-14T07:59:17;95757.44;;;3.69;56.90
58879;BME280;44660;42.664;23.266;2023-02-14T08:01:43;95759.09;;;3.70;57.21
58879;BME280;44660;42.664;23.266;2023-02-14T08:04:09;95730.25;;;3.37;56.93
58879;BME280;44660;42.664;23.266;2023-02-14T08:06:37;95777.47;;;3.78;56.29
58879;BME280;44660;42.664;23.266;2023-02-14T08:09:03;95745.56;;;3.73;56.07
58879;BME280;44660;42.664;23.266;2023-02-14T08:11:29;95692.66;;;3.28;56.14
58879;BME280;44660;42.664;23.266;2023-02-14T08:14:13;95768.44;;;3.72;56.11
58879;BME280;44660;42.664;23.266;2023-02-14T08:16:38;95776.81;;;3.76;56.54
58879;BME280;44660;42.664;23.266;2023-02-14T08:19:04;95777.88;;;3.58;57.06
58879;BME280;44660;42.664;23.266;2023-02-14T08:21:29;95788.50;;;3.73;56.64
58879;BME280;44660;42.664;23.266;2023-02-14T08:23:56;95796.19;;;3.83;56.35
58879;BME280;44660;42.664;23.266;2023-02-14T08:26:22;95745.31;;;3.51;56.91
58879;BME280;44660;42.664;23.266;2023-02-14T08:28:47;95710.59;;;3.16;57.48
58879;BME280;44660;42.664;23.266;2023-02-14T08:31:21;95798.38;;;3.71;57.96
58879;BME280;44660;42.664;23.266;2023-02-14T08:33:47;95788.38;;;3.50;58.52
58879;BME280;44660;42.664;23.266;2023-02-14T08:36:13;95781.34;;;3.51;58.65
58879;BME280;44660;42.664;23.266;2023-02-14T08:38:38;95758.69;;;3.33;59.01
58879;BME280;44660;42.664;23.266;2023-02-14T08:41:05;95790.41;;;3.32;59.55
58879;BME280;44660;42.664;23.266;2023-02-14T08:43:31;95774.31;;;3.26;59.46
58879;BME280;44660;42.664;23.266;2023-02-14T08:45:56;95792.38;;;3.30;59.84
58879;BME280;44660;42.664;23.266;2023-02-14T08:48:22;95741.50;;;2.89;60.27
58879;BME280;44660;42.664;23.266;2023-02-14T08:50:49;95800.94;;;3.07;60.85
58879;BME280;44660;42.664;23.266;2023-02-14T08:53:15;95800.78;;;3.00;61.25
58879;BME280;44660;42.664;23.266;2023-02-14T08:55:40;95786.34;;;2.96;61.70
58879;BME280;44660;42.664;23.266;2023-02-14T08:58:06;95766.78;;;2.74;62.09
58879;BME280;44660;42.664;23.266;2023-02-14T09:00:32;95803.91;;;3.04;61.98
58879;BME280;44660;42.664;23.266;2023-02-14T09:02:58;95781.91;;;2.88;61.95
58879;BME280;44660;42.664;23.266;2023-02-14T09:05:24;95755.78;;;2.70;62.19
58879;BME280;44660;42.664;23.266;2023-02-14T09:07:50;95744.78;;;2.50;62.67
58879;BME280;44660;42.664;23.266;2023-02-14T09:10:15;95783.38;;;2.99;62.29
58879;BME280;44660;42.664;23.266;2023-02-14T09:12:43;95742.16;;;2.83;62.19
58879;BME280;44660;42.664;23.266;2023-02-14T09:15:09;95776.47;;;3.06;62.42
58879;BME280;44660;42.664;23.266;2023-02-14T09:17:36;95789.59;;;3.15;62.17
58879;BME280;44660;42.664;23.266;2023-02-14T09:20:03;95758.25;;;2.97;62.24
58879;BME280;44660;42.664;23.266;2023-02-14T09:22:28;95763.63;;;3.20;61.60
58879;BME280;44660;42.664;23.266;2023-02-14T09:24:54;95758.72;;;3.08;61.77
58879;BME280;44660;42.664;23.266;2023-02-14T09:27:19;95766.78;;;3.15;61.83
58879;BME280;44660;42.664;23.266;2023-02-14T09:29:45;95754.28;;;3.17;61.57
58879;BME280;44660;42.664;23.266;2023-02-14T09:32:10;95770.72;;;3.19;61.57
58879;BME280;44660;42.664;23.266;2023-02-14T09:34:36;95745.94;;;2.97;61.61
58879;BME280;44660;42.664;23.266;2023-02-14T09:37:01;95777.94;;;3.25;61.06
58879;BME280;44660;42.664;23.266;2023-02-14T09:39:46;95769.38;;;3.23;60.83
58879;BME280;44660;42.664;23.266;2023-02-14T09:42:17;95774.50;;;3.17;61.25
58879;BME280;44660;42.664;23.266;2023-02-14T09:44:56;95775.59;;;3.39;60.52
58879;BME280;44660;42.664;23.266;2023-02-14T09:48:04;95770.31;;;3.47;59.79
58879;BME280;44660;42.664;23.266;2023-02-14T09:50:29;95771.31;;;3.54;59.46
58879;BME280;44660;42.664;23.266;2023-02-14T09:53:05;95770.28;;;3.55;59.50
58879;BME280;44660;42.664;23.266;2023-02-14T09:55:43;95747.16;;;3.42;59.49
58879;BME280;44660;42.664;23.266;2023-02-14T09:58:34;95749.97;;;3.41;59.58
58879;BME280;44660;42.664;23.266;2023-02-14T10:01:28;95748.31;;;3.40;59.86
58879;BME280;44660;42.664;23.266;2023-02-14T10:11:51;95721.47;;;3.05;59.56
58879;BME280;44660;42.664;23.266;2023-02-14T10:14:23;95678.44;;;2.89;59.07
58879;BME280;44660;42.664;23.266;2023-02-14T10:16:55;95742.44;;;3.30;58.98
58879;BME280;44660;42.664;23.266;2023-02-14T10:19:31;95744.22;;;3.37;58.77
58879;BME280;44660;42.664;23.266;2023-02-14T10:22:20;95748.63;;;3.45;58.54
58879;BME280;44660;42.664;23.266;2023-02-14T10:27:34;95742.38;;;3.46;58.20
58879;BME280;44660;42.664;23.266;2023-02-14T10:30:01;95667.75;;;2.99;57.67
58879;BME280;44660;42.664;23.266;2023-02-14T10:32:39;95742.69;;;3.59;57.56
58879;BME280;44660;42.664;23.266;2023-02-14T10:35:26;95717.59;;;3.40;57.59
58879;BME280;44660;42.664;23.266;2023-02-14T10:43:01;95732.25;;;3.18;58.08
58879;BME280;44660;42.664;23.266;2023-02-14T10:48:29;95741.75;;;3.27;58.15
58879;BME280;44660;42.664;23.266;2023-02-14T10:53:32;95748.00;;;3.35;57.98
58879;BME280;44660;42.664;23.266;2023-02-14T10:56:07;95653.69;;;2.67;58.21
58879;BME280;44660;42.664;23.266;2023-02-14T10:58:37;95716.25;;;2.72;59.19
58879;BME280;44660;42.664;23.266;2023-02-14T11:01:13;95730.66;;;2.92;59.30
58879;BME280;44660;42.664;23.266;2023-02-14T11:03:42;95722.28;;;2.89;59.25
58879;BME280;44660;42.664;23.266;2023-02-14T11:06:14;95669.63;;;2.66;59.22
58879;BME280;44660;42.664;23.266;2023-02-14T11:08:40;95728.66;;;3.11;58.81
58879;BME280;44660;42.664;23.266;2023-02-14T11:11:41;95724.22;;;3.12;58.45
58879;BME280;44660;42.664;23.266;2023-02-14T11:14:37;95712.88;;;3.11;58.47
58879;BME280;44660;42.664;23.266;2023-02-14T11:17:39;95711.44;;;3.00;58.23
58879;BME280;44660;42.664;23.266;2023-02-14T11:20:22;95734.09;;;3.01;58.11
58879;BME280;44660;42.664;23.266;2023-02-14T11:22:48;95688.97;;;2.81;58.36
58879;BME280;44660;42.664;23.266;2023-02-14T11:25:23;95681.38;;;2.94;58.29
58879;BME280;44660;42.664;23.266;2023-02-14T11:28:05;95719.63;;;3.14;58.11
58879;BME280;44660;42.664;23.266;2023-02-14T11:30:38;95715.84;;;3.16;57.94
58879;BME280;44660;42.664;23.266;2023-02-14T11:33:06;95699.09;;;3.09;58.03
58879;BME280;44660;42.664;23.266;2023-02-14T11:35:32;95704.72;;;2.98;58.07
58879;BME280;44660;42.664;23.266;2023-02-14T11:38:03;95669.09;;;2.78;58.05
58879;BME280;44660;42.664;23.266;2023-02-14T11:40:34;95658.78;;;2.77;57.69
58879;BME280;44660;42.664;23.266;2023-02-14T11:45:36;95698.75;;;3.12;57.33
58879;BME280;44660;42.664;23.266;2023-02-14T11:48:24;95696.97;;;3.04;57.57
58879;BME280;44660;42.664;23.266;2023-02-14T11:51:16;95610.53;;;2.53;57.10
58879;BME280;44660;42.664;23.266;2023-02-14T11:54:52;95678.03;;;3.17;56.88
58879;BME280;44660;42.664;23.266;2023-02-14T11:57:37;95675.06;;;3.29;56.41
58879;BME280;44660;42.664;23.266;2023-02-14T12:00:17;95684.94;;;3.26;56.43
58879;BME280;44660;42.664;23.266;2023-02-14T12:02:46;95671.19;;;3.08;56.58
58879;BME280;44660;42.664;23.266;2023-02-14T12:05:27;95656.06;;;3.02;56.57
58879;BME280;44660;42.664;23.266;2023-02-14T12:07:59;95658.03;;;3.16;56.47
58879;BME280;44660;42.664;23.266;2023-02-14T12:10:31;95668.63;;;3.39;55.83
58879;BME280;44660;42.664;23.266;2023-02-14T12:15:37;95667.03;;;3.22;56.05
58879;BME280;44660;42.664;23.266;2023-02-14T12:31:34;95649.97;;;3.18;56.73
58879;BME280;44660;42.664;23.266;2023-02-14T12:34:01;95647.09;;;3.36;56.13
58879;BME280;44660;42.664;23.266;2023-02-14T12:42:27;95649.91;;;3.34;56.50
58879;BME280;44660;42.664;23.266;2023-02-14T12:45:10;95653.69;;;3.32;56.43
58879;BME280;44660;42.664;23.266;2023-02-14T12:48:10;95645.19;;;3.21;57.23
58879;BME280;44660;42.664;23.266;2023-02-14T12:50:48;95605.16;;;3.03;56.92
58879;BME280;44660;42.664;23.266;2023-02-14T12:53:27;95646.75;;;3.39;56.74
58879;BME280;44660;42.664;23.266;2023-02-14T12:56:26;95651.31;;;3.45;56.78
58879;BME280;44660;42.664;23.266;2023-02-14T13:04:42;95600.72;;;3.03;57.30
58879;BME280;44660;42.664;23.266;2023-02-14T13:10:34;95651.19;;;3.38;57.48
58879;BME280;44660;42.664;23.266;2023-02-14T13:13:12;95644.66;;;3.34;57.66
58879;BME280;44660;42.664;23.266;2023-02-14T13:16:26;95636.09;;;3.32;57.91
58879;BME280;44660;42.664;23.266;2023-02-14T13:21:27;95629.69;;;3.35;57.84
58879;BME280;44660;42.664;23.266;2023-02-14T13:24:03;95589.50;;;3.18;57.66
58879;BME280;44660;42.664;23.266;2023-02-14T13:26:34;95598.88;;;3.20;57.70
58879;BME280;44660;42.664;23.266;2023-02-14T13:29:03;95602.41;;;3.36;57.60
58879;BME280;44660;42.664;23.266;2023-02-14T13:31:30;95629.00;;;3.41;58.01
58879;BME280;44660;42.664;23.266;2023-02-14T13:34:31;95629.06;;;3.33;58.33
58879;BME280;44660;42.664;23.266;2023-02-14T13:36:59;95604.41;;;3.25;58.26
58879;BME280;44660;42.664;23.266;2023-02-14T13:39:38;95627.28;;;3.56;58.08
58879;BME280;44660;42.664;23.266;2023-02-14T13:42:05;95624.34;;;3.51;57.99
58879;BME280;44660;42.664;23.266;2023-02-14T13:44:45;95618.03;;;3.60;57.95
58879;BME280;44660;42.664;23.266;2023-02-14T13:47:17;95620.94;;;3.42;58.16
58879;BME280;44660;42.664;23.266;2023-02-14T13:50:04;95532.50;;;2.70;58.64
58879;BME280;44660;42.664;23.266;2023-02-14T13:52:56;95626.25;;;3.34;58.88
58879;BME280;44660;42.664;23.266;2023-02-14T13:55:25;95601.91;;;3.32;58.39
58879;BME280;44660;42.664;23.266;2023-02-14T13:58:04;95629.66;;;3.43;58.72
58879;BME280;44660;42.664;23.266;2023-02-14T14:00:38;95625.72;;;3.39;58.63
58879;BME280;44660;42.664;23.266;2023-02-14T14:03:05;95627.72;;;3.37;58.29
58879;BME280;44660;42.664;23.266;2023-02-14T14:10:53;95636.41;;;3.37;58.67
58879;BME280;44660;42.664;23.266;2023-02-14T14:18:49;95606.19;;;3.33;57.72
58879;BME280;44660;42.664;23.266;2023-02-14T14:21:23;95616.22;;;3.30;57.85
58879;BME280;44660;42.664;23.266;2023-02-14T14:24:10;95628.72;;;3.27;58.60
58879;BME280;44660;42.664;23.266;2023-02-14T14:26:39;95547.22;;;2.88;58.34
58879;BME280;44660;42.664;23.266;2023-02-14T14:29:51;95620.81;;;3.36;58.37
58879;BME280;44660;42.664;23.266;2023-02-14T14:34:54;95617.63;;;3.49;57.79
58879;BME280;44660;42.664;23.266;2023-02-14T14:37:23;95616.34;;;3.45;58.25
58879;BME280;44660;42.664;23.266;2023-02-14T14:39:54;95604.00;;;3.45;58.13
58879;BME280;44660;42.664;23.266;2023-02-14T14:42:22;95614.19;;;3.48;58.10
58879;BME280;44660;42.664;23.266;2023-02-14T14:44:54;95581.72;;;3.33;58.24
58879;BME280;44660;42.664;23.266;2023-02-14T14:47:23;95608.94;;;3.48;58.00
58879;BME280;44660;42.664;23.266;2023-02-14T14:49:51;95589.44;;;3.34;58.46
58879;BME280;44660;42.664;23.266;2023-02-14T14:52:31;95610.91;;;3.46;58.22
58879;BME280;44660;42.664;23.266;2023-02-14T14:54:58;95591.59;;;3.31;58.13
58879;BME280;44660;42.664;23.266;2023-02-14T14:57:25;95607.00;;;3.34;58.49
58879;BME280;44660;42.664;23.266;2023-02-14T15:00:06;95612.63;;;3.31;58.85
58879;BME280;44660;42.664;23.266;2023-02-14T15:02:33;95601.13;;;3.23;59.03
58879;BME280;44660;42.664;23.266;2023-02-14T15:05:35;95616.53;;;3.35;58.64
58879;BME280;44660;42.664;23.266;2023-02-14T15:08:20;95616.72;;;3.33;58.55
58879;BME280;44660;42.664;23.266;2023-02-14T15:10:52;95609.94;;;3.39;58.40